Data Viewer
| City | State | Eastern Time | Source | Temp | DewPt | RH | BP | 5 Min Precip | Wind Speed | Wind Dir | 5 Min Wind Max | 5 Min Wind Max Dir |
|---|---|---|---|---|---|---|---|---|---|---|---|---|
| Haworth | NJ | 2026-05-05 00:00 | Mesonet | 61 | 46 | 57 | 29.83 | 0.00 | 2 | SE | 5 | WSW |
| Haworth | NJ | 2026-05-05 15:50 | Mesonet | 84 | 48 | 29 | 29.74 | 0.00 | 10 | SSW | 19 | S |
| Haworth | NJ | 2026-05-05 16:20 | Mesonet | 84 | 47 | 28 | 29.73 | 0.00 | 6 | SSW | 20 | W |
| Haworth | NJ | 2026-05-05 16:15 | Mesonet | 84 | 46 | 27 | 29.73 | 0.00 | 11 | WSW | 26 | W |
| Haworth | NJ | 2026-05-05 16:10 | Mesonet | 84 | 45 | 26 | 29.73 | 0.00 | 6 | SSE | 24 | WNW |
| Haworth | NJ | 2026-05-05 16:05 | Mesonet | 84 | 46 | 27 | 29.73 | 0.00 | 5 | SSW | 21 | W |
| Haworth | NJ | 2026-05-05 16:00 | Mesonet | 83 | 46 | 27 | 29.73 | 0.00 | 11 | SSW | 22 | SW |
| Haworth | NJ | 2026-05-05 15:55 | Mesonet | 84 | 46 | 27 | 29.74 | 0.00 | 11 | WNW | 22 | WNW |
| Haworth | NJ | 2026-05-05 15:45 | Mesonet | 84 | 47 | 28 | 29.74 | 0.00 | 4 | NNW | 22 | SW |
| Haworth | NJ | 2026-05-05 16:30 | Mesonet | 84 | 48 | 28 | 29.73 | 0.00 | 7 | WNW | 21 | WNW |
| Haworth | NJ | 2026-05-05 15:40 | Mesonet | 83 | 46 | 27 | 29.74 | 0.00 | 6 | W | 20 | SW |
| Haworth | NJ | 2026-05-05 15:35 | Mesonet | 83 | 47 | 28 | 29.74 | 0.00 | 6 | WNW | 25 | W |
| Haworth | NJ | 2026-05-05 15:30 | Mesonet | 84 | 46 | 27 | 29.75 | 0.00 | 13 | SSW | 21 | WSW |
| Haworth | NJ | 2026-05-05 15:25 | Mesonet | 83 | 46 | 28 | 29.75 | 0.00 | 10 | SSW | 23 | W |
| Haworth | NJ | 2026-05-05 15:20 | Mesonet | 84 | 46 | 27 | 29.75 | 0.00 | 16 | S | 21 | S |
| Haworth | NJ | 2026-05-05 15:15 | Mesonet | 83 | 47 | 29 | 29.75 | 0.00 | 8 | SSW | 18 | WNW |
| Haworth | NJ | 2026-05-05 16:25 | Mesonet | 84 | 47 | 28 | 29.73 | 0.00 | 3 | WNW | 20 | NW |
| Haworth | NJ | 2026-05-05 16:35 | Mesonet | 84 | 47 | 27 | 29.72 | 0.00 | 6 | SW | 19 | WNW |
| Haworth | NJ | 2026-05-05 15:05 | Mesonet | 83 | 49 | 31 | 29.75 | 0.00 | 3 | WSW | 19 | W |
| Haworth | NJ | 2026-05-05 17:20 | Mesonet | 83 | 46 | 27 | 29.71 | 0.00 | 12 | WSW | 17 | W |
| Haworth | NJ | 2026-05-05 17:50 | Mesonet | 83 | 45 | 26 | 29.73 | 0.00 | 2 | W | 23 | NW |
| Haworth | NJ | 2026-05-05 17:45 | Mesonet | 83 | 46 | 27 | 29.72 | 0.00 | 17 | WNW | 21 | SSW |
| Haworth | NJ | 2026-05-05 17:40 | Mesonet | 82 | 45 | 27 | 29.72 | 0.00 | 9 | W | 21 | NNW |
| Haworth | NJ | 2026-05-05 17:35 | Mesonet | 83 | 45 | 27 | 29.72 | 0.00 | 9 | SSW | 24 | W |
| Haworth | NJ | 2026-05-05 17:30 | Mesonet | 84 | 45 | 26 | 29.72 | 0.00 | 11 | SSE | 18 | SSW |
| Haworth | NJ | 2026-05-05 17:25 | Mesonet | 83 | 46 | 27 | 29.72 | 0.00 | 6 | WSW | 18 | WNW |
| Haworth | NJ | 2026-05-05 17:15 | Mesonet | 83 | 47 | 28 | 29.72 | 0.00 | 8 | NNW | 20 | SSW |
| Haworth | NJ | 2026-05-05 16:40 | Mesonet | 84 | 47 | 27 | 29.72 | 0.00 | 6 | S | 21 | WSW |
| Haworth | NJ | 2026-05-05 17:10 | Mesonet | 83 | 46 | 27 | 29.72 | 0.00 | 15 | SW | 21 | WSW |
| Haworth | NJ | 2026-05-05 17:05 | Mesonet | 83 | 46 | 27 | 29.72 | 0.00 | 14 | WSW | 21 | W |
| Haworth | NJ | 2026-05-05 17:00 | Mesonet | 84 | 46 | 27 | 29.72 | 0.00 | 6 | SSW | 18 | W |
| Haworth | NJ | 2026-05-05 16:55 | Mesonet | 84 | 47 | 27 | 29.73 | 0.00 | 10 | WSW | 25 | WSW |
| Haworth | NJ | 2026-05-05 16:50 | Mesonet | 84 | 46 | 27 | 29.72 | 0.00 | 4 | SSE | 23 | WSW |
| Haworth | NJ | 2026-05-05 16:45 | Mesonet | 84 | 46 | 26 | 29.72 | 0.00 | 5 | NNW | 24 | S |
| Haworth | NJ | 2026-05-05 15:10 | Mesonet | 84 | 48 | 30 | 29.76 | 0.00 | 11 | WSW | 24 | WSW |
| Haworth | NJ | 2026-05-05 15:00 | Mesonet | 83 | 51 | 33 | 29.76 | 0.00 | 6 | SW | 16 | WSW |
| Haworth | NJ | 2026-05-05 18:00 | Mesonet | 82 | 45 | 27 | 29.73 | 0.00 | 6 | WSW | 23 | W |
| Haworth | NJ | 2026-05-05 12:50 | Mesonet | 80 | 53 | 40 | 29.79 | 0.00 | 4 | SW | 15 | SW |
| Haworth | NJ | 2026-05-05 13:20 | Mesonet | 80 | 54 | 41 | 29.78 | 0.00 | 5 | WSW | 17 | SSE |
| Haworth | NJ | 2026-05-05 13:15 | Mesonet | 80 | 56 | 43 | 29.78 | 0.00 | 3 | W | 16 | SW |
| Haworth | NJ | 2026-05-05 13:10 | Mesonet | 81 | 54 | 39 | 29.78 | 0.00 | 6 | WSW | 16 | SE |
| Haworth | NJ | 2026-05-05 13:05 | Mesonet | 80 | 54 | 41 | 29.78 | 0.00 | 4 | SSE | 16 | SW |
| Haworth | NJ | 2026-05-05 13:00 | Mesonet | 79 | 53 | 41 | 29.78 | 0.00 | 0 | SSW | 15 | WNW |
| Haworth | NJ | 2026-05-05 12:55 | Mesonet | 80 | 54 | 41 | 29.79 | 0.00 | 5 | SE | 11 | W |
| Haworth | NJ | 2026-05-05 12:45 | Mesonet | 81 | 56 | 42 | 29.79 | 0.00 | 7 | SW | 9 | SE |
| Haworth | NJ | 2026-05-05 13:30 | Mesonet | 81 | 55 | 40 | 29.78 | 0.00 | 5 | SSE | 17 | SW |
| Haworth | NJ | 2026-05-05 12:40 | Mesonet | 79 | 54 | 42 | 29.78 | 0.00 | 7 | WSW | 12 | SW |
| Haworth | NJ | 2026-05-05 12:35 | Mesonet | 79 | 54 | 42 | 29.79 | 0.00 | 3 | ESE | 13 | SSE |
| Haworth | NJ | 2026-05-05 12:30 | Mesonet | 79 | 54 | 42 | 29.80 | 0.00 | 6 | SSW | 11 | S |
| Haworth | NJ | 2026-05-05 12:25 | Mesonet | 79 | 53 | 41 | 29.79 | 0.00 | 0 | SSE | 12 | SW |
| Haworth | NJ | 2026-05-05 12:20 | Mesonet | 78 | 54 | 42 | 29.80 | 0.00 | 7 | SW | 16 | WSW |
| Haworth | NJ | 2026-05-05 12:15 | Mesonet | 78 | 53 | 42 | 29.80 | 0.00 | 7 | SSW | 13 | SSE |
| Haworth | NJ | 2026-05-05 13:25 | Mesonet | 81 | 54 | 40 | 29.78 | 0.00 | 7 | SSE | 15 | S |
| Haworth | NJ | 2026-05-05 13:35 | Mesonet | 82 | 55 | 40 | 29.78 | 0.00 | 5 | SSE | 16 | SE |
| Haworth | NJ | 2026-05-05 14:55 | Mesonet | 83 | 48 | 30 | 29.76 | 0.00 | 9 | SW | 23 | W |
| Haworth | NJ | 2026-05-05 14:20 | Mesonet | 82 | 53 | 36 | 29.77 | 0.00 | 16 | SSW | 19 | SSW |
| Haworth | NJ | 2026-05-05 14:50 | Mesonet | 83 | 48 | 30 | 29.76 | 0.00 | 9 | WSW | 21 | SSW |
| Haworth | NJ | 2026-05-05 14:45 | Mesonet | 83 | 50 | 32 | 29.77 | 0.00 | 4 | W | 19 | NNW |
| Haworth | NJ | 2026-05-05 14:40 | Mesonet | 83 | 50 | 32 | 29.77 | 0.00 | 16 | NW | 23 | S |
| Haworth | NJ | 2026-05-05 14:35 | Mesonet | 83 | 49 | 32 | 29.77 | 0.00 | 11 | SW | 20 | SW |
| Haworth | NJ | 2026-05-05 14:30 | Mesonet | 83 | 50 | 33 | 29.77 | 0.00 | 11 | SW | 21 | S |
| Haworth | NJ | 2026-05-05 14:25 | Mesonet | 83 | 51 | 34 | 29.76 | 0.00 | 11 | S | 19 | SW |
| Haworth | NJ | 2026-05-05 14:15 | Mesonet | 82 | 53 | 37 | 29.77 | 0.00 | 8 | WSW | 21 | SE |
| Haworth | NJ | 2026-05-05 13:40 | Mesonet | 81 | 53 | 38 | 29.77 | 0.00 | 5 | SSW | 21 | SSE |
| Haworth | NJ | 2026-05-05 14:10 | Mesonet | 82 | 53 | 36 | 29.78 | 0.00 | 10 | SW | 18 | SSE |
| Haworth | NJ | 2026-05-05 14:05 | Mesonet | 82 | 49 | 32 | 29.77 | 0.00 | 10 | WSW | 19 | SW |
| Haworth | NJ | 2026-05-05 14:00 | Mesonet | 83 | 53 | 36 | 29.77 | 0.00 | 3 | WSW | 16 | SSW |
| Haworth | NJ | 2026-05-05 13:55 | Mesonet | 82 | 54 | 38 | 29.77 | 0.00 | 9 | SSW | 15 | SE |
| Haworth | NJ | 2026-05-05 13:50 | Mesonet | 82 | 55 | 40 | 29.77 | 0.00 | 6 | S | 12 | WSW |
| Haworth | NJ | 2026-05-05 13:45 | Mesonet | 82 | 54 | 39 | 29.77 | 0.00 | 7 | S | 13 | SSE |
| Haworth | NJ | 2026-05-05 17:55 | Mesonet | 83 | 45 | 26 | 29.73 | 0.00 | 13 | W | 20 | WSW |
| Haworth | NJ | 2026-05-05 18:05 | Mesonet | 82 | 45 | 27 | 29.73 | 0.00 | 3 | WNW | 16 | W |
| Haworth | NJ | 2026-05-05 12:05 | Mesonet | 78 | 55 | 44 | 29.80 | 0.00 | 8 | SSW | 8 | S |
| Haworth | NJ | 2026-05-05 21:55 | Mesonet | 72 | 54 | 53 | 29.79 | 0.00 | 9 | SSW | 12 | S |
| Haworth | NJ | 2026-05-05 22:25 | Mesonet | 71 | 54 | 55 | 29.80 | 0.00 | 3 | SE | 11 | SSW |
| Haworth | NJ | 2026-05-05 22:20 | Mesonet | 71 | 54 | 54 | 29.80 | 0.00 | 6 | SSW | 11 | S |
| Haworth | NJ | 2026-05-05 22:15 | Mesonet | 72 | 54 | 54 | 29.80 | 0.00 | 8 | SSE | 11 | S |
| Haworth | NJ | 2026-05-05 22:10 | Mesonet | 72 | 54 | 53 | 29.79 | 0.00 | 4 | SSE | 13 | SSW |
| Haworth | NJ | 2026-05-05 22:05 | Mesonet | 72 | 54 | 53 | 29.79 | 0.00 | 5 | SSW | 15 | SSE |
| Haworth | NJ | 2026-05-05 22:00 | Mesonet | 72 | 54 | 53 | 29.79 | 0.00 | 3 | SSW | 14 | WSW |
| Haworth | NJ | 2026-05-05 21:50 | Mesonet | 72 | 54 | 52 | 29.79 | 0.00 | 11 | SSE | 16 | W |
| Haworth | NJ | 2026-05-05 22:35 | Mesonet | 71 | 54 | 56 | 29.80 | 0.00 | 4 | SW | 9 | SSW |
| Haworth | NJ | 2026-05-05 21:45 | Mesonet | 72 | 54 | 52 | 29.79 | 0.00 | 2 | WSW | 16 | WSW |
| Haworth | NJ | 2026-05-05 21:40 | Mesonet | 73 | 53 | 51 | 29.78 | 0.00 | 6 | SSW | 16 | SSW |
| Haworth | NJ | 2026-05-05 21:35 | Mesonet | 73 | 53 | 49 | 29.78 | 0.00 | 0 | SSE | 15 | SSE |
| Haworth | NJ | 2026-05-05 21:30 | Mesonet | 73 | 53 | 48 | 29.78 | 0.00 | 10 | SSE | 13 | S |
| Haworth | NJ | 2026-05-05 21:25 | Mesonet | 74 | 52 | 47 | 29.78 | 0.00 | 10 | SSW | 11 | SW |
| Haworth | NJ | 2026-05-05 21:20 | Mesonet | 75 | 52 | 44 | 29.77 | 0.00 | 5 | ESE | 12 | S |
| Haworth | NJ | 2026-05-05 22:30 | Mesonet | 71 | 54 | 56 | 29.80 | 0.00 | 4 | SSW | 9 | SSE |
| Haworth | NJ | 2026-05-05 22:40 | Mesonet | 70 | 54 | 57 | 29.80 | 0.00 | 6 | S | 11 | SSW |
| Haworth | NJ | 2026-05-05 21:10 | Mesonet | 77 | 50 | 39 | 29.77 | 0.00 | 4 | SSW | 12 | S |
| Haworth | NJ | 2026-05-05 23:25 | Mesonet | 69 | 54 | 58 | 29.80 | 0.00 | 4 | SE | 8 | WSW |
| Haworth | NJ | 2026-05-05 23:55 | Mesonet | 70 | 54 | 57 | 29.81 | 0.00 | 2 | SSW | 13 | W |
| Haworth | NJ | 2026-05-05 23:50 | Mesonet | 69 | 54 | 58 | 29.81 | 0.00 | 2 | S | 9 | SW |
| Haworth | NJ | 2026-05-05 23:45 | Mesonet | 69 | 54 | 58 | 29.81 | 0.00 | 5 | WSW | 5 | S |
| Haworth | NJ | 2026-05-05 23:40 | Mesonet | 69 | 54 | 58 | 29.81 | 0.00 | 2 | S | 6 | SW |
| Haworth | NJ | 2026-05-05 23:35 | Mesonet | 69 | 54 | 58 | 29.81 | 0.00 | 2 | W | 9 | S |
| Haworth | NJ | 2026-05-05 23:30 | Mesonet | 69 | 54 | 58 | 29.81 | 0.00 | 6 | S | 8 | S |
| Haworth | NJ | 2026-05-05 23:20 | Mesonet | 70 | 54 | 58 | 29.81 | 0.00 | 4 | W | 7 | SSW |
| Haworth | NJ | 2026-05-05 22:45 | Mesonet | 70 | 54 | 57 | 29.79 | 0.00 | 3 | S | 11 | SSW |
| Haworth | NJ | 2026-05-05 23:15 | Mesonet | 70 | 54 | 58 | 29.81 | 0.00 | 4 | SW | 11 | SW |
| Haworth | NJ | 2026-05-05 23:10 | Mesonet | 70 | 54 | 58 | 29.80 | 0.00 | 6 | WSW | 7 | SSE |
| Haworth | NJ | 2026-05-05 23:05 | Mesonet | 70 | 54 | 58 | 29.80 | 0.00 | 6 | SSE | 9 | WSW |
| Haworth | NJ | 2026-05-05 23:00 | Mesonet | 70 | 54 | 58 | 29.80 | 0.00 | 3 | SW | 7 | S |
| Haworth | NJ | 2026-05-05 22:55 | Mesonet | 70 | 54 | 58 | 29.80 | 0.00 | 2 | SSW | 8 | SE |
| Haworth | NJ | 2026-05-05 22:50 | Mesonet | 70 | 54 | 57 | 29.80 | 0.00 | 5 | S | 12 | SSW |
| Haworth | NJ | 2026-05-05 21:15 | Mesonet | 76 | 51 | 42 | 29.77 | 0.00 | 2 | S | 12 | SSE |
| Haworth | NJ | 2026-05-05 21:05 | Mesonet | 77 | 50 | 39 | 29.77 | 0.00 | 3 | WSW | 15 | SW |
| Haworth | NJ | 2026-05-05 18:10 | Mesonet | 82 | 45 | 27 | 29.73 | 0.00 | 7 | S | 18 | SSW |
| Haworth | NJ | 2026-05-05 18:50 | Mesonet | 81 | 44 | 27 | 29.74 | 0.00 | 6 | SW | 18 | SW |
| Haworth | NJ | 2026-05-05 19:20 | Mesonet | 80 | 45 | 29 | 29.74 | 0.00 | 5 | S | 14 | SW |
| Haworth | NJ | 2026-05-05 19:15 | Mesonet | 80 | 44 | 28 | 29.74 | 0.00 | 5 | W | 14 | WNW |
| Haworth | NJ | 2026-05-05 19:10 | Mesonet | 81 | 44 | 28 | 29.74 | 0.00 | 7 | SSW | 18 | W |
| Haworth | NJ | 2026-05-05 19:05 | Mesonet | 81 | 44 | 27 | 29.74 | 0.00 | 9 | NW | 18 | SW |
| Haworth | NJ | 2026-05-05 19:00 | Mesonet | 81 | 44 | 27 | 29.73 | 0.00 | 11 | WNW | 21 | SW |
| Haworth | NJ | 2026-05-05 18:55 | Mesonet | 81 | 44 | 27 | 29.74 | 0.00 | 9 | S | 17 | NW |
| Haworth | NJ | 2026-05-05 18:45 | Mesonet | 82 | 44 | 27 | 29.73 | 0.00 | 14 | W | 19 | WSW |
| Haworth | NJ | 2026-05-05 19:30 | Mesonet | 80 | 46 | 30 | 29.75 | 0.00 | 5 | WSW | 18 | SW |
| Haworth | NJ | 2026-05-05 18:40 | Mesonet | 82 | 45 | 27 | 29.73 | 0.00 | 17 | WSW | 23 | SW |
| Haworth | NJ | 2026-05-05 18:35 | Mesonet | 82 | 45 | 27 | 29.73 | 0.00 | 8 | WNW | 20 | WSW |
| Haworth | NJ | 2026-05-05 18:30 | Mesonet | 82 | 44 | 26 | 29.73 | 0.00 | 11 | SW | 21 | W |
| Haworth | NJ | 2026-05-05 18:25 | Mesonet | 83 | 45 | 27 | 29.73 | 0.00 | 11 | W | 17 | SW |
| Haworth | NJ | 2026-05-05 18:20 | Mesonet | 83 | 45 | 27 | 29.72 | 0.00 | 5 | W | 16 | SSW |
| Haworth | NJ | 2026-05-05 18:15 | Mesonet | 82 | 46 | 28 | 29.73 | 0.00 | 14 | WSW | 19 | SSW |
| Haworth | NJ | 2026-05-05 19:25 | Mesonet | 80 | 45 | 29 | 29.74 | 0.00 | 7 | WSW | 17 | SSW |
| Haworth | NJ | 2026-05-05 19:35 | Mesonet | 80 | 46 | 30 | 29.75 | 0.00 | 7 | WNW | 24 | SW |
| Haworth | NJ | 2026-05-05 21:00 | Mesonet | 77 | 50 | 38 | 29.76 | 0.00 | 8 | W | 16 | SW |
| Haworth | NJ | 2026-05-05 20:25 | Mesonet | 79 | 47 | 33 | 29.75 | 0.00 | 6 | SW | 15 | WSW |
| Haworth | NJ | 2026-05-05 20:55 | Mesonet | 78 | 50 | 38 | 29.76 | 0.00 | 8 | W | 12 | SW |
| Haworth | NJ | 2026-05-05 20:50 | Mesonet | 78 | 50 | 38 | 29.76 | 0.00 | 3 | SSE | 12 | S |
| Haworth | NJ | 2026-05-05 20:45 | Mesonet | 78 | 50 | 37 | 29.76 | 0.00 | 3 | SE | 17 | WSW |
| Haworth | NJ | 2026-05-05 20:40 | Mesonet | 78 | 49 | 36 | 29.76 | 0.00 | 11 | SW | 19 | SW |
| Haworth | NJ | 2026-05-05 20:35 | Mesonet | 78 | 49 | 36 | 29.75 | 0.00 | 10 | WSW | 11 | WSW |
| Haworth | NJ | 2026-05-05 20:30 | Mesonet | 78 | 48 | 34 | 29.75 | 0.00 | 3 | SSW | 15 | SW |
| Haworth | NJ | 2026-05-05 20:20 | Mesonet | 79 | 48 | 33 | 29.75 | 0.00 | 10 | W | 15 | S |
| Haworth | NJ | 2026-05-05 19:40 | Mesonet | 80 | 46 | 30 | 29.74 | 0.00 | 11 | W | 20 | WSW |
| Haworth | NJ | 2026-05-05 20:15 | Mesonet | 79 | 47 | 32 | 29.75 | 0.00 | 5 | SSW | 14 | SSW |
| Haworth | NJ | 2026-05-05 20:10 | Mesonet | 79 | 47 | 32 | 29.75 | 0.00 | 0 | SSW | 12 | SW |
| Haworth | NJ | 2026-05-05 20:05 | Mesonet | 79 | 46 | 32 | 29.75 | 0.00 | 2 | SSW | 12 | SE |
| Haworth | NJ | 2026-05-05 20:00 | Mesonet | 79 | 46 | 31 | 29.76 | 0.00 | 5 | WNW | 10 | W |
| Haworth | NJ | 2026-05-05 19:55 | Mesonet | 79 | 46 | 31 | 29.76 | 0.00 | 5 | WSW | 12 | W |
| Haworth | NJ | 2026-05-05 19:50 | Mesonet | 79 | 46 | 31 | 29.75 | 0.00 | 5 | W | 16 | SW |
| Haworth | NJ | 2026-05-05 19:45 | Mesonet | 79 | 46 | 31 | 29.75 | 0.00 | 8 | WSW | 13 | S |
| Haworth | NJ | 2026-05-05 12:10 | Mesonet | 78 | 54 | 43 | 29.80 | 0.00 | 4 | S | 11 | SE |
| Haworth | NJ | 2026-05-05 12:00 | Mesonet | 77 | 54 | 45 | 29.80 | 0.00 | 7 | WSW | 11 | SW |
| Haworth | NJ | 2026-05-05 00:05 | Mesonet | 61 | 46 | 57 | 29.83 | 0.00 | 0 | SSE | 6 | SSW |
| Haworth | NJ | 2026-05-05 03:45 | Mesonet | 53 | 47 | 81 | 29.82 | 0.00 | 0 | SSE | 0 | SSE |
| Haworth | NJ | 2026-05-05 04:15 | Mesonet | 53 | 48 | 83 | 29.82 | 0.00 | 0 | SSW | 2 | S |
| Haworth | NJ | 2026-05-05 04:10 | Mesonet | 53 | 48 | 82 | 29.82 | 0.00 | 2 | S | 2 | SSW |
| Haworth | NJ | 2026-05-05 04:05 | Mesonet | 53 | 48 | 82 | 29.82 | 0.00 | 0 | SSW | 3 | S |
| Haworth | NJ | 2026-05-05 04:00 | Mesonet | 53 | 48 | 82 | 29.82 | 0.00 | 1 | SSW | 3 | SSW |
| Haworth | NJ | 2026-05-05 03:55 | Mesonet | 53 | 48 | 82 | 29.82 | 0.00 | 0 | SW | 2 | S |
| Haworth | NJ | 2026-05-05 03:50 | Mesonet | 53 | 48 | 82 | 29.82 | 0.00 | 2 | S | 2 | S |
| Haworth | NJ | 2026-05-05 03:40 | Mesonet | 53 | 47 | 81 | 29.82 | 0.00 | 0 | SSE | 0 | SSE |
| Haworth | NJ | 2026-05-05 04:25 | Mesonet | 53 | 48 | 83 | 29.82 | 0.00 | 0 | SW | 0 | SW |
| Haworth | NJ | 2026-05-05 03:35 | Mesonet | 53 | 47 | 80 | 29.82 | 0.00 | 0 | SSE | 0 | SSE |
| Haworth | NJ | 2026-05-05 03:30 | Mesonet | 54 | 47 | 79 | 29.82 | 0.00 | 0 | SSE | 0 | SSE |
| Haworth | NJ | 2026-05-05 03:25 | Mesonet | 54 | 47 | 79 | 29.82 | 0.00 | 0 | SSE | 0 | SSE |
| Haworth | NJ | 2026-05-05 03:20 | Mesonet | 54 | 48 | 79 | 29.82 | 0.00 | 0 | SSE | 0 | NW |
| Haworth | NJ | 2026-05-05 03:15 | Mesonet | 54 | 47 | 79 | 29.82 | 0.00 | 0 | NW | 0 | NW |
| Haworth | NJ | 2026-05-05 03:10 | Mesonet | 54 | 47 | 78 | 29.82 | 0.00 | 0 | NW | 3 | NW |
| Haworth | NJ | 2026-05-05 04:20 | Mesonet | 53 | 48 | 83 | 29.82 | 0.00 | 0 | SW | 2 | SSW |
| Haworth | NJ | 2026-05-05 04:30 | Mesonet | 53 | 48 | 83 | 29.82 | 0.00 | 0 | SW | 0 | SW |
| Haworth | NJ | 2026-05-05 03:00 | Mesonet | 54 | 47 | 78 | 29.81 | 0.00 | 0 | WSW | 4 | SSW |
| Haworth | NJ | 2026-05-05 05:15 | Mesonet | 53 | 48 | 82 | 29.82 | 0.00 | 0 | SSW | 3 | S |
| Haworth | NJ | 2026-05-05 05:45 | Mesonet | 55 | 49 | 80 | 29.82 | 0.00 | 0 | SSW | 1 | WSW |
| Haworth | NJ | 2026-05-05 05:40 | Mesonet | 55 | 49 | 80 | 29.82 | 0.00 | 0 | WSW | 3 | W |
| Haworth | NJ | 2026-05-05 05:35 | Mesonet | 55 | 49 | 80 | 29.82 | 0.00 | 0 | W | 5 | S |
| Haworth | NJ | 2026-05-05 05:30 | Mesonet | 55 | 49 | 80 | 29.82 | 0.00 | 0 | WSW | 5 | SSW |
| Haworth | NJ | 2026-05-05 05:25 | Mesonet | 54 | 49 | 82 | 29.82 | 0.00 | 1 | SE | 5 | S |
| Haworth | NJ | 2026-05-05 05:20 | Mesonet | 54 | 49 | 82 | 29.82 | 0.00 | 2 | S | 4 | SSW |
| Haworth | NJ | 2026-05-05 05:10 | Mesonet | 53 | 48 | 83 | 29.82 | 0.00 | 3 | S | 3 | S |
| Haworth | NJ | 2026-05-05 04:35 | Mesonet | 53 | 48 | 83 | 29.82 | 0.00 | 0 | SW | 2 | SW |
| Haworth | NJ | 2026-05-05 05:05 | Mesonet | 53 | 48 | 83 | 29.82 | 0.00 | 1 | SSW | 3 | S |
| Haworth | NJ | 2026-05-05 05:00 | Mesonet | 53 | 48 | 83 | 29.82 | 0.00 | 0 | SSW | 2 | S |
| Haworth | NJ | 2026-05-05 04:55 | Mesonet | 53 | 48 | 83 | 29.82 | 0.00 | 0 | SSW | 4 | S |
| Haworth | NJ | 2026-05-05 04:50 | Mesonet | 53 | 48 | 84 | 29.82 | 0.00 | 0 | SSW | 3 | SW |
| Haworth | NJ | 2026-05-05 04:45 | Mesonet | 53 | 48 | 84 | 29.82 | 0.00 | 1 | SW | 2 | SW |
| Haworth | NJ | 2026-05-05 04:40 | Mesonet | 53 | 48 | 83 | 29.82 | 0.00 | 0 | SW | 0 | SW |
| Haworth | NJ | 2026-05-05 03:05 | Mesonet | 54 | 47 | 79 | 29.81 | 0.00 | 2 | NW | 2 | NNW |
| Haworth | NJ | 2026-05-05 02:55 | Mesonet | 54 | 47 | 77 | 29.81 | 0.00 | 2 | SSW | 3 | SSE |
| Haworth | NJ | 2026-05-05 05:55 | Mesonet | 54 | 48 | 81 | 29.83 | 0.00 | 0 | SW | 2 | SW |
| Haworth | NJ | 2026-05-05 00:45 | Mesonet | 60 | 46 | 60 | 29.83 | 0.00 | 2 | SE | 5 | SW |
| Haworth | NJ | 2026-05-05 01:15 | Mesonet | 59 | 47 | 63 | 29.82 | 0.00 | 0 | SSW | 1 | S |
| Haworth | NJ | 2026-05-05 01:10 | Mesonet | 60 | 47 | 62 | 29.82 | 0.00 | 0 | SSW | 3 | SSW |
| Haworth | NJ | 2026-05-05 01:05 | Mesonet | 60 | 47 | 62 | 29.83 | 0.00 | 0 | SW | 5 | SW |
| Haworth | NJ | 2026-05-05 01:00 | Mesonet | 60 | 47 | 61 | 29.83 | 0.00 | 0 | SSW | 4 | S |
| Haworth | NJ | 2026-05-05 00:55 | Mesonet | 60 | 47 | 60 | 29.82 | 0.00 | 2 | SW | 5 | SW |
| Haworth | NJ | 2026-05-05 00:50 | Mesonet | 61 | 46 | 60 | 29.83 | 0.00 | 0 | SSW | 5 | WSW |
| Haworth | NJ | 2026-05-05 00:40 | Mesonet | 61 | 47 | 59 | 29.83 | 0.00 | 2 | S | 5 | S |
| Haworth | NJ | 2026-05-05 01:25 | Mesonet | 59 | 47 | 64 | 29.83 | 0.00 | 0 | WSW | 3 | S |
| Haworth | NJ | 2026-05-05 00:35 | Mesonet | 61 | 46 | 58 | 29.83 | 0.00 | 3 | SW | 5 | WSW |
| Haworth | NJ | 2026-05-05 00:30 | Mesonet | 61 | 46 | 58 | 29.83 | 0.00 | 1 | S | 5 | SSW |
| Haworth | NJ | 2026-05-05 00:25 | Mesonet | 61 | 46 | 58 | 29.83 | 0.00 | 2 | SSW | 5 | WSW |
| Haworth | NJ | 2026-05-05 00:20 | Mesonet | 61 | 46 | 58 | 29.83 | 0.00 | 3 | SSE | 6 | WSW |
| Haworth | NJ | 2026-05-05 00:15 | Mesonet | 61 | 46 | 57 | 29.82 | 0.00 | 2 | SSW | 5 | SSE |
| Haworth | NJ | 2026-05-05 00:10 | Mesonet | 61 | 46 | 58 | 29.83 | 0.00 | 1 | S | 5 | SW |
| Haworth | NJ | 2026-05-05 01:20 | Mesonet | 59 | 47 | 63 | 29.83 | 0.00 | 0 | SW | 5 | S |
| Haworth | NJ | 2026-05-05 01:30 | Mesonet | 58 | 47 | 66 | 29.83 | 0.00 | 0 | WSW | 2 | SW |
| Haworth | NJ | 2026-05-05 02:50 | Mesonet | 54 | 47 | 77 | 29.81 | 0.00 | 0 | S | 3 | SSW |
| Haworth | NJ | 2026-05-05 02:15 | Mesonet | 55 | 47 | 73 | 29.82 | 0.00 | 0 | WSW | 2 | SSW |
| Haworth | NJ | 2026-05-05 02:45 | Mesonet | 54 | 47 | 76 | 29.81 | 0.00 | 0 | S | 2 | SSW |
| Haworth | NJ | 2026-05-05 02:40 | Mesonet | 55 | 47 | 76 | 29.82 | 0.00 | 0 | SSW | 1 | SSW |
| Haworth | NJ | 2026-05-05 02:35 | Mesonet | 55 | 47 | 75 | 29.82 | 0.00 | 0 | SSW | 0 | WSW |
| Haworth | NJ | 2026-05-05 02:30 | Mesonet | 55 | 47 | 75 | 29.82 | 0.00 | 0 | WSW | 0 | WSW |
| Haworth | NJ | 2026-05-05 02:25 | Mesonet | 55 | 47 | 74 | 29.82 | 0.00 | 0 | WSW | 0 | WSW |
| Haworth | NJ | 2026-05-05 02:20 | Mesonet | 55 | 47 | 73 | 29.82 | 0.00 | 0 | WSW | 0 | WSW |
| Haworth | NJ | 2026-05-05 02:10 | Mesonet | 56 | 47 | 72 | 29.83 | 0.00 | 0 | SSW | 2 | SSW |
| Haworth | NJ | 2026-05-05 01:35 | Mesonet | 58 | 47 | 66 | 29.83 | 0.00 | 0 | SW | 2 | SSW |
| Haworth | NJ | 2026-05-05 02:05 | Mesonet | 56 | 47 | 71 | 29.82 | 0.00 | 0 | SSW | 0 | SSW |
| Haworth | NJ | 2026-05-05 02:00 | Mesonet | 56 | 47 | 71 | 29.82 | 0.00 | 0 | SSW | 2 | SSW |
| Haworth | NJ | 2026-05-05 01:55 | Mesonet | 57 | 47 | 71 | 29.82 | 0.00 | 0 | WSW | 0 | WSW |
| Haworth | NJ | 2026-05-05 01:50 | Mesonet | 57 | 47 | 70 | 29.82 | 0.00 | 0 | WSW | 1 | WSW |
| Haworth | NJ | 2026-05-05 01:45 | Mesonet | 57 | 47 | 68 | 29.83 | 0.00 | 0 | WSW | 1 | WSW |
| Haworth | NJ | 2026-05-05 01:40 | Mesonet | 58 | 47 | 68 | 29.83 | 0.00 | 0 | WSW | 0 | SW |
| Haworth | NJ | 2026-05-05 05:50 | Mesonet | 55 | 48 | 80 | 29.82 | 0.00 | 0 | W | 4 | SW |
| Haworth | NJ | 2026-05-05 06:00 | Mesonet | 54 | 49 | 82 | 29.83 | 0.00 | 2 | SSW | 4 | SSE |
| Haworth | NJ | 2026-05-05 11:55 | Mesonet | 77 | 54 | 44 | 29.81 | 0.00 | 9 | WSW | 11 | SSW |
| Haworth | NJ | 2026-05-05 09:50 | Mesonet | 71 | 53 | 53 | 29.84 | 0.00 | 5 | SW | 11 | SW |
| Haworth | NJ | 2026-05-05 10:20 | Mesonet | 73 | 52 | 49 | 29.83 | 0.00 | 7 | SSE | 13 | WSW |
| Haworth | NJ | 2026-05-05 10:15 | Mesonet | 72 | 53 | 50 | 29.84 | 0.00 | 4 | W | 16 | SSW |
| Haworth | NJ | 2026-05-05 10:10 | Mesonet | 72 | 53 | 51 | 29.84 | 0.00 | 5 | W | 11 | WSW |
| Haworth | NJ | 2026-05-05 10:05 | Mesonet | 72 | 53 | 51 | 29.84 | 0.00 | 0 | SE | 10 | WSW |
| Haworth | NJ | 2026-05-05 10:00 | Mesonet | 72 | 53 | 51 | 29.84 | 0.00 | 3 | SW | 8 | SW |
| Haworth | NJ | 2026-05-05 09:55 | Mesonet | 72 | 54 | 54 | 29.84 | 0.00 | 1 | SE | 8 | W |
| Haworth | NJ | 2026-05-05 09:45 | Mesonet | 70 | 52 | 53 | 29.83 | 0.00 | 5 | SW | 11 | SW |
| Haworth | NJ | 2026-05-05 10:30 | Mesonet | 73 | 53 | 49 | 29.84 | 0.00 | 5 | W | 12 | SSW |
| Haworth | NJ | 2026-05-05 09:40 | Mesonet | 70 | 53 | 54 | 29.84 | 0.00 | 4 | WNW | 11 | WNW |
| Haworth | NJ | 2026-05-05 09:35 | Mesonet | 70 | 52 | 53 | 29.85 | 0.00 | 8 | WSW | 15 | WNW |
| Haworth | NJ | 2026-05-05 09:30 | Mesonet | 70 | 52 | 54 | 29.85 | 0.00 | 6 | SW | 10 | SSW |
| Haworth | NJ | 2026-05-05 09:25 | Mesonet | 69 | 53 | 55 | 29.84 | 0.00 | 5 | S | 11 | W |
| Haworth | NJ | 2026-05-05 09:20 | Mesonet | 69 | 53 | 57 | 29.84 | 0.00 | 9 | WSW | 9 | WSW |
| Haworth | NJ | 2026-05-05 09:15 | Mesonet | 69 | 54 | 60 | 29.84 | 0.00 | 3 | WNW | 10 | WSW |
| Haworth | NJ | 2026-05-05 10:25 | Mesonet | 73 | 53 | 49 | 29.84 | 0.00 | 5 | WSW | 11 | WSW |
| Haworth | NJ | 2026-05-05 10:35 | Mesonet | 73 | 53 | 49 | 29.84 | 0.00 | 4 | WSW | 15 | WSW |
| Haworth | NJ | 2026-05-05 09:05 | Mesonet | 67 | 53 | 60 | 29.83 | 0.00 | 4 | SSW | 9 | W |
| Haworth | NJ | 2026-05-05 11:20 | Mesonet | 76 | 53 | 45 | 29.81 | 0.00 | 5 | SW | 10 | S |
| Haworth | NJ | 2026-05-05 11:50 | Mesonet | 77 | 53 | 44 | 29.81 | 0.00 | 5 | SW | 17 | SSE |
| Haworth | NJ | 2026-05-05 11:45 | Mesonet | 76 | 53 | 44 | 29.81 | 0.00 | 5 | SSW | 14 | SSE |
| Haworth | NJ | 2026-05-05 11:40 | Mesonet | 77 | 53 | 44 | 29.81 | 0.00 | 10 | S | 14 | SSE |
| Haworth | NJ | 2026-05-05 11:35 | Mesonet | 77 | 54 | 46 | 29.82 | 0.00 | 5 | W | 13 | SW |
| Haworth | NJ | 2026-05-05 11:30 | Mesonet | 76 | 54 | 46 | 29.82 | 0.00 | 8 | S | 11 | SE |
| Haworth | NJ | 2026-05-05 11:25 | Mesonet | 76 | 54 | 46 | 29.82 | 0.00 | 7 | SSW | 17 | S |
| Haworth | NJ | 2026-05-05 11:15 | Mesonet | 76 | 54 | 46 | 29.82 | 0.00 | 6 | SW | 10 | NW |
| Haworth | NJ | 2026-05-05 10:40 | Mesonet | 74 | 53 | 48 | 29.83 | 0.00 | 3 | NNW | 13 | WSW |
| Haworth | NJ | 2026-05-05 11:10 | Mesonet | 75 | 52 | 45 | 29.82 | 0.00 | 2 | NNW | 13 | WSW |
| Haworth | NJ | 2026-05-05 11:05 | Mesonet | 75 | 52 | 45 | 29.82 | 0.00 | 9 | WSW | 11 | SW |
| Haworth | NJ | 2026-05-05 11:00 | Mesonet | 76 | 54 | 47 | 29.82 | 0.00 | 8 | WNW | 8 | W |
| Haworth | NJ | 2026-05-05 10:55 | Mesonet | 74 | 52 | 46 | 29.83 | 0.00 | 8 | WNW | 16 | WSW |
| Haworth | NJ | 2026-05-05 10:50 | Mesonet | 74 | 52 | 47 | 29.83 | 0.00 | 10 | WSW | 19 | WNW |
| Haworth | NJ | 2026-05-05 10:45 | Mesonet | 75 | 53 | 47 | 29.83 | 0.00 | 6 | WNW | 11 | SW |
| Haworth | NJ | 2026-05-05 09:10 | Mesonet | 67 | 52 | 58 | 29.83 | 0.00 | 4 | WNW | 9 | WSW |
| Haworth | NJ | 2026-05-05 09:00 | Mesonet | 67 | 52 | 60 | 29.83 | 0.00 | 3 | W | 8 | SSW |
| Haworth | NJ | 2026-05-05 06:05 | Mesonet | 54 | 49 | 82 | 29.83 | 0.00 | 0 | W | 3 | SW |
| Haworth | NJ | 2026-05-05 06:45 | Mesonet | 58 | 51 | 77 | 29.85 | 0.00 | 0 | S | 0 | SW |
| Haworth | NJ | 2026-05-05 07:15 | Mesonet | 58 | 51 | 79 | 29.84 | 0.00 | 2 | SSW | 5 | SSE |
| Haworth | NJ | 2026-05-05 07:10 | Mesonet | 59 | 51 | 75 | 29.84 | 0.00 | 5 | S | 6 | S |
| Haworth | NJ | 2026-05-05 07:05 | Mesonet | 59 | 51 | 74 | 29.85 | 0.00 | 4 | SW | 5 | WSW |
| Haworth | NJ | 2026-05-05 07:00 | Mesonet | 59 | 51 | 73 | 29.85 | 0.00 | 0 | W | 4 | S |
| Haworth | NJ | 2026-05-05 06:55 | Mesonet | 58 | 51 | 76 | 29.85 | 0.00 | 0 | S | 0 | S |
| Haworth | NJ | 2026-05-05 06:50 | Mesonet | 58 | 50 | 76 | 29.85 | 0.00 | 0 | S | 3 | SSE |
| Haworth | NJ | 2026-05-05 06:40 | Mesonet | 57 | 50 | 78 | 29.85 | 0.00 | 0 | SW | 2 | S |
| Haworth | NJ | 2026-05-05 07:25 | Mesonet | 57 | 52 | 83 | 29.83 | 0.00 | 4 | SE | 5 | NE |
| Haworth | NJ | 2026-05-05 06:35 | Mesonet | 56 | 50 | 79 | 29.85 | 0.00 | 0 | S | 2 | W |
| Haworth | NJ | 2026-05-05 06:30 | Mesonet | 56 | 50 | 80 | 29.85 | 0.00 | 0 | SSW | 3 | SSE |
| Haworth | NJ | 2026-05-05 06:25 | Mesonet | 55 | 49 | 81 | 29.85 | 0.00 | 3 | SSE | 3 | S |
| Haworth | NJ | 2026-05-05 06:20 | Mesonet | 55 | 49 | 81 | 29.84 | 0.00 | 1 | SSE | 4 | SSE |
| Haworth | NJ | 2026-05-05 06:15 | Mesonet | 55 | 49 | 81 | 29.84 | 0.00 | 1 | SSE | 4 | SSW |
| Haworth | NJ | 2026-05-05 06:10 | Mesonet | 55 | 49 | 81 | 29.83 | 0.00 | 0 | SE | 2 | S |
| Haworth | NJ | 2026-05-05 07:20 | Mesonet | 57 | 52 | 82 | 29.84 | 0.00 | 2 | E | 3 | E |
| Haworth | NJ | 2026-05-05 07:30 | Mesonet | 56 | 52 | 87 | 29.83 | 0.00 | 0 | WSW | 4 | S |
| Haworth | NJ | 2026-05-05 08:55 | Mesonet | 66 | 53 | 62 | 29.83 | 0.00 | 0 | SSE | 9 | SSE |
| Haworth | NJ | 2026-05-05 08:20 | Mesonet | 63 | 54 | 73 | 29.83 | 0.00 | 0 | WNW | 4 | SW |
| Haworth | NJ | 2026-05-05 08:50 | Mesonet | 66 | 53 | 63 | 29.83 | 0.00 | 3 | W | 11 | S |
| Haworth | NJ | 2026-05-05 08:45 | Mesonet | 65 | 53 | 65 | 29.83 | 0.00 | 4 | S | 6 | WSW |
| Haworth | NJ | 2026-05-05 08:40 | Mesonet | 65 | 54 | 67 | 29.83 | 0.00 | 3 | WSW | 7 | S |
| Haworth | NJ | 2026-05-05 08:35 | Mesonet | 64 | 54 | 69 | 29.83 | 0.00 | 3 | S | 6 | SW |
| Haworth | NJ | 2026-05-05 08:30 | Mesonet | 63 | 54 | 70 | 29.83 | 0.00 | 1 | SSE | 7 | WSW |
| Haworth | NJ | 2026-05-05 08:25 | Mesonet | 63 | 54 | 70 | 29.83 | 0.00 | 2 | W | 5 | SW |
| Haworth | NJ | 2026-05-05 08:15 | Mesonet | 62 | 55 | 77 | 29.83 | 0.00 | 0 | S | 3 | WSW |
| Haworth | NJ | 2026-05-05 07:35 | Mesonet | 56 | 53 | 88 | 29.84 | 0.00 | 0 | SSW | 2 | SSW |
| Haworth | NJ | 2026-05-05 08:10 | Mesonet | 61 | 55 | 79 | 29.84 | 0.00 | 0 | SW | 3 | WSW |
| Haworth | NJ | 2026-05-05 08:05 | Mesonet | 60 | 55 | 83 | 29.84 | 0.00 | 0 | SSW | 4 | WSW |
| Haworth | NJ | 2026-05-05 08:00 | Mesonet | 59 | 55 | 84 | 29.85 | 0.00 | 0 | S | 4 | SW |
| Haworth | NJ | 2026-05-05 07:55 | Mesonet | 59 | 55 | 86 | 29.83 | 0.00 | 0 | S | 4 | SSW |
| Haworth | NJ | 2026-05-05 07:50 | Mesonet | 59 | 56 | 89 | 29.83 | 0.00 | 0 | SW | 3 | SSW |
| Haworth | NJ | 2026-05-05 07:45 | Mesonet | 58 | 55 | 91 | 29.84 | 0.00 | 0 | S | 4 | SSE |
| Haworth | NJ | 2026-05-05 07:40 | Mesonet | 56 | 54 | 91 | 29.84 | 0.00 | 0 | SSE | 4 | SSW |
| Haworth | NJ | 2026-05-06 00:00 | Mesonet | 70 | 54 | 57 | 29.81 | 0.00 | 7 | SSE | 10 | WSW |
data collection created in 0.063747882843018 (queried in 0.013440) rendered in: 0.0008389949798584

